sensor_id;sensor_type;location;lat;lon;timestamp;pressure;altitude;pressure_sealevel;temperature;humidity
68301;BME280;55146;47.468;18.806;2022-09-06T00:00:23;100523.03;;;19.19;62.31
68301;BME280;55146;47.468;18.806;2022-09-06T00:02:49;100528.75;;;19.14;63.17
68301;BME280;55146;47.468;18.806;2022-09-06T00:05:14;100520.84;;;19.08;63.97
68301;BME280;55146;47.468;18.806;2022-09-06T00:07:40;100516.88;;;18.69;64.77
68301;BME280;55146;47.468;18.806;2022-09-06T00:10:06;100522.88;;;18.63;66.38
68301;BME280;55146;47.468;18.806;2022-09-06T00:12:32;100522.47;;;18.78;65.50
68301;BME280;55146;47.468;18.806;2022-09-06T00:14:58;100513.62;;;18.76;65.49
68301;BME280;55146;47.468;18.806;2022-09-06T00:17:23;100518.19;;;18.72;65.49
68301;BME280;55146;47.468;18.806;2022-09-06T00:19:48;100528.34;;;18.54;65.17
68301;BME280;55146;47.468;18.806;2022-09-06T00:22:14;100523.88;;;18.67;66.67
68301;BME280;55146;47.468;18.806;2022-09-06T00:24:39;100524.41;;;18.69;66.73
68301;BME280;55146;47.468;18.806;2022-09-06T00:27:06;100526.97;;;18.65;66.92
68301;BME280;55146;47.468;18.806;2022-09-06T00:29:33;100528.34;;;18.54;66.52
68301;BME280;55146;47.468;18.806;2022-09-06T00:31:58;100528.50;;;18.49;67.45
68301;BME280;55146;47.468;18.806;2022-09-06T00:34:25;100529.00;;;18.51;68.10
68301;BME280;55146;47.468;18.806;2022-09-06T00:36:50;100528.34;;;18.54;68.28
68301;BME280;55146;47.468;18.806;2022-09-06T00:39:16;100529.81;;;18.51;67.91
68301;BME280;55146;47.468;18.806;2022-09-06T00:41:41;100528.66;;;18.52;66.89
68301;BME280;55146;47.468;18.806;2022-09-06T00:44:06;100527.53;;;18.53;67.25
68301;BME280;55146;47.468;18.806;2022-09-06T00:46:32;100521.31;;;18.12;68.59
68301;BME280;55146;47.468;18.806;2022-09-06T00:49:04;100516.53;;;18.26;69.31
68301;BME280;55146;47.468;18.806;2022-09-06T00:51:31;100528.03;;;18.33;68.92
68301;BME280;55146;47.468;18.806;2022-09-06T00:54:01;100520.31;;;18.30;69.17
68301;BME280;55146;47.468;18.806;2022-09-06T00:56:27;100531.28;;;18.27;69.24
68301;BME280;55146;47.468;18.806;2022-09-06T00:58:53;100525.06;;;18.30;69.33
68301;BME280;55146;47.468;18.806;2022-09-06T01:01:18;100528.78;;;18.25;69.75
68301;BME280;55146;47.468;18.806;2022-09-06T01:03:44;100531.87;;;18.24;69.88
68301;BME280;55146;47.468;18.806;2022-09-06T01:09:11;100527.41;;;18.14;70.48
68301;BME280;55146;47.468;18.806;2022-09-06T01:17:28;100516.62;;;17.85;71.19
68301;BME280;55146;47.468;18.806;2022-09-06T01:31:15;100512.28;;;17.93;70.22
68301;BME280;55146;47.468;18.806;2022-09-06T01:36:17;100514.47;;;17.82;70.33
68301;BME280;55146;47.468;18.806;2022-09-06T01:38:43;100515.72;;;17.76;70.11
68301;BME280;55146;47.468;18.806;2022-09-06T01:41:09;100506.56;;;17.75;70.39
68301;BME280;55146;47.468;18.806;2022-09-06T01:43:38;100516.22;;;17.78;70.65
68301;BME280;55146;47.468;18.806;2022-09-06T01:46:14;100510.59;;;17.69;70.02
68301;BME280;55146;47.468;18.806;2022-09-06T01:49:18;100515.31;;;17.83;70.08
68301;BME280;55146;47.468;18.806;2022-09-06T01:52:19;100522.59;;;17.78;70.22
68301;BME280;55146;47.468;18.806;2022-09-06T01:58:30;100517.47;;;17.72;73.61
68301;BME280;55146;47.468;18.806;2022-09-06T02:01:20;100512.41;;;17.74;74.03
68301;BME280;55146;47.468;18.806;2022-09-06T02:03:59;100515.72;;;17.76;74.22
68301;BME280;55146;47.468;18.806;2022-09-06T02:06:32;100517.16;;;17.73;74.11
68301;BME280;55146;47.468;18.806;2022-09-06T02:09:06;100517.47;;;17.72;73.07
68301;BME280;55146;47.468;18.806;2022-09-06T02:11:42;100509.13;;;17.72;73.62
68301;BME280;55146;47.468;18.806;2022-09-06T02:14:16;100505.84;;;17.70;73.63
68301;BME280;55146;47.468;18.806;2022-09-06T02:16:45;100506.75;;;17.65;73.14
68301;BME280;55146;47.468;18.806;2022-09-06T02:19:18;100510.78;;;17.73;72.49
68301;BME280;55146;47.468;18.806;2022-09-06T02:21:46;100502.72;;;17.71;72.37
68301;BME280;55146;47.468;18.806;2022-09-06T02:24:18;100504.47;;;17.81;70.25
68301;BME280;55146;47.468;18.806;2022-09-06T02:26:45;100500.12;;;17.89;69.39
68301;BME280;55146;47.468;18.806;2022-09-06T02:29:12;100494.59;;;17.75;70.71
68301;BME280;55146;47.468;18.806;2022-09-06T02:31:42;100499.34;;;17.61;70.99
68301;BME280;55146;47.468;18.806;2022-09-06T02:34:10;100498.75;;;17.64;71.38
68301;BME280;55146;47.468;18.806;2022-09-06T02:36:37;100491.28;;;17.59;71.63
68301;BME280;55146;47.468;18.806;2022-09-06T02:39:04;100493.66;;;17.66;70.57
68301;BME280;55146;47.468;18.806;2022-09-06T02:41:30;100500.06;;;17.66;71.86
68301;BME280;55146;47.468;18.806;2022-09-06T02:43:56;100500.88;;;17.67;72.97
68301;BME280;55146;47.468;18.806;2022-09-06T02:46:21;100491.28;;;17.59;73.75
68301;BME280;55146;47.468;18.806;2022-09-06T02:48:48;100497.47;;;17.56;74.05
68301;BME280;55146;47.468;18.806;2022-09-06T02:51:14;100497.38;;;17.48;74.90
68301;BME280;55146;47.468;18.806;2022-09-06T02:53:39;100487.06;;;17.48;74.47
68301;BME280;55146;47.468;18.806;2022-09-06T02:56:05;100495.94;;;17.36;74.71
68301;BME280;55146;47.468;18.806;2022-09-06T02:58:30;100487.28;;;17.24;73.30
68301;BME280;55146;47.468;18.806;2022-09-06T03:00:55;100489.06;;;17.34;72.56
68301;BME280;55146;47.468;18.806;2022-09-06T03:03:21;100480.91;;;17.37;72.38
68301;BME280;55146;47.468;18.806;2022-09-06T03:05:51;100487.06;;;17.34;72.96
68301;BME280;55146;47.468;18.806;2022-09-06T03:08:17;100485.84;;;17.40;71.61
68301;BME280;55146;47.468;18.806;2022-09-06T03:10:50;100487.38;;;17.47;71.82
68301;BME280;55146;47.468;18.806;2022-09-06T03:13:16;100486.47;;;17.51;70.56
68301;BME280;55146;47.468;18.806;2022-09-06T03:15:42;100487.91;;;17.49;71.48
68301;BME280;55146;47.468;18.806;2022-09-06T03:18:07;100490.47;;;17.45;73.43
68301;BME280;55146;47.468;18.806;2022-09-06T03:20:33;100481.44;;;17.39;74.87
68301;BME280;55146;47.468;18.806;2022-09-06T03:22:58;100480.91;;;17.37;75.61
68301;BME280;55146;47.468;18.806;2022-09-06T03:25:23;100480.91;;;17.24;76.04
68301;BME280;55146;47.468;18.806;2022-09-06T03:27:49;100477.72;;;17.17;75.20
68301;BME280;55146;47.468;18.806;2022-09-06T03:30:15;100477.63;;;17.08;73.03
68301;BME280;55146;47.468;18.806;2022-09-06T03:32:40;100475.03;;;17.25;71.60
68301;BME280;55146;47.468;18.806;2022-09-06T03:35:06;100474.84;;;17.22;72.17
68301;BME280;55146;47.468;18.806;2022-09-06T03:37:32;100479.78;;;17.25;70.97
68301;BME280;55146;47.468;18.806;2022-09-06T03:39:57;100482.75;;;17.28;71.35
68301;BME280;55146;47.468;18.806;2022-09-06T03:42:22;100483.28;;;17.17;71.90
68301;BME280;55146;47.468;18.806;2022-09-06T03:44:50;100479.97;;;17.01;72.98
68301;BME280;55146;47.468;18.806;2022-09-06T03:47:15;100487.63;;;17.09;72.04
68301;BME280;55146;47.468;18.806;2022-09-06T03:49:41;100485.72;;;17.05;72.59
68301;BME280;55146;47.468;18.806;2022-09-06T03:52:06;100482.47;;;17.03;72.15
68301;BME280;55146;47.468;18.806;2022-09-06T03:54:31;100476.06;;;17.02;72.78
68301;BME280;55146;47.468;18.806;2022-09-06T03:56:57;100482.13;;;17.18;72.09
68301;BME280;55146;47.468;18.806;2022-09-06T03:59:22;100484.50;;;17.11;72.52
68301;BME280;55146;47.468;18.806;2022-09-06T04:01:47;100483.06;;;17.13;71.19
68301;BME280;55146;47.468;18.806;2022-09-06T04:04:13;100485.44;;;17.06;72.08
68301;BME280;55146;47.468;18.806;2022-09-06T04:06:38;100489.34;;;17.19;70.12
68301;BME280;55146;47.468;18.806;2022-09-06T04:09:03;100487.50;;;17.14;70.94
68301;BME280;55146;47.468;18.806;2022-09-06T04:11:28;100483.28;;;17.03;71.27
68301;BME280;55146;47.468;18.806;2022-09-06T04:13:54;100485.84;;;17.13;69.91
68301;BME280;55146;47.468;18.806;2022-09-06T04:16:19;100478.34;;;17.27;68.87
68301;BME280;55146;47.468;18.806;2022-09-06T04:18:44;100487.69;;;17.18;69.18
68301;BME280;55146;47.468;18.806;2022-09-06T04:21:10;100481.72;;;17.38;68.06
68301;BME280;55146;47.468;18.806;2022-09-06T04:23:35;100485.22;;;17.30;68.25
68301;BME280;55146;47.468;18.806;2022-09-06T04:26:00;100487.19;;;17.29;68.51
68301;BME280;55146;47.468;18.806;2022-09-06T04:28:26;100495.44;;;17.21;68.83
68301;BME280;55146;47.468;18.806;2022-09-06T04:30:56;100499.75;;;17.27;69.26
68301;BME280;55146;47.468;18.806;2022-09-06T04:33:22;100496.25;;;17.21;69.16
68301;BME280;55146;47.468;18.806;2022-09-06T04:35:55;100500.25;;;17.29;69.33
68301;BME280;55146;47.468;18.806;2022-09-06T04:38:21;100502.13;;;17.20;69.45
68301;BME280;55146;47.468;18.806;2022-09-06T04:40:47;100498.13;;;17.26;68.62
68301;BME280;55146;47.468;18.806;2022-09-06T04:43:12;100498.91;;;17.54;65.93
68301;BME280;55146;47.468;18.806;2022-09-06T04:45:38;100493.25;;;17.18;69.10
68301;BME280;55146;47.468;18.806;2022-09-06T04:48:04;100494.22;;;17.27;68.56
68301;BME280;55146;47.468;18.806;2022-09-06T04:50:29;100489.78;;;17.39;67.34
68301;BME280;55146;47.468;18.806;2022-09-06T04:52:54;100484.63;;;17.19;69.48
68301;BME280;55146;47.468;18.806;2022-09-06T04:55:19;100486.38;;;17.15;69.26
68301;BME280;55146;47.468;18.806;2022-09-06T04:57:45;100485.03;;;17.13;69.58
68301;BME280;55146;47.468;18.806;2022-09-06T05:00:10;100479.59;;;17.21;69.10
68301;BME280;55146;47.468;18.806;2022-09-06T05:02:36;100483.28;;;17.30;68.75
68301;BME280;55146;47.468;18.806;2022-09-06T05:05:01;100483.59;;;17.15;68.85
68301;BME280;55146;47.468;18.806;2022-09-06T05:07:26;100483.38;;;17.25;69.58
68301;BME280;55146;47.468;18.806;2022-09-06T05:09:52;100478.94;;;17.11;70.10
68301;BME280;55146;47.468;18.806;2022-09-06T05:12:17;100478.66;;;17.26;68.71
68301;BME280;55146;47.468;18.806;2022-09-06T05:14:42;100481.22;;;17.36;68.04
68301;BME280;55146;47.468;18.806;2022-09-06T05:17:07;100481.09;;;17.41;67.98
68301;BME280;55146;47.468;18.806;2022-09-06T05:19:33;100480.47;;;17.58;66.56
68301;BME280;55146;47.468;18.806;2022-09-06T05:21:58;100481.09;;;17.55;66.81
68301;BME280;55146;47.468;18.806;2022-09-06T05:24:23;100481.81;;;17.60;67.13
68301;BME280;55146;47.468;18.806;2022-09-06T05:26:49;100490.56;;;17.67;66.27
68301;BME280;55146;47.468;18.806;2022-09-06T05:29:14;100485.53;;;17.69;67.63
68301;BME280;55146;47.468;18.806;2022-09-06T05:31:39;100485.00;;;17.67;66.90
68301;BME280;55146;47.468;18.806;2022-09-06T05:34:05;100483.97;;;17.77;66.43
68301;BME280;55146;47.468;18.806;2022-09-06T05:36:30;100469.81;;;17.87;64.87
68301;BME280;55146;47.468;18.806;2022-09-06T05:38:57;100482.09;;;17.86;65.18
68301;BME280;55146;47.468;18.806;2022-09-06T05:41:23;100483.69;;;18.01;63.84
68301;BME280;55146;47.468;18.806;2022-09-06T05:43:48;100487.97;;;17.85;65.22
68301;BME280;55146;47.468;18.806;2022-09-06T05:46:17;100489.31;;;18.09;63.13
68301;BME280;55146;47.468;18.806;2022-09-06T05:48:42;100484.09;;;18.08;64.34
68301;BME280;55146;47.468;18.806;2022-09-06T05:51:09;100486.66;;;18.04;63.88
68301;BME280;55146;47.468;18.806;2022-09-06T05:53:46;100484.66;;;18.18;63.02
68301;BME280;55146;47.468;18.806;2022-09-06T05:56:13;100486.22;;;18.11;64.06
68301;BME280;55146;47.468;18.806;2022-09-06T05:58:39;100488.91;;;18.16;65.24
68301;BME280;55146;47.468;18.806;2022-09-06T06:01:20;100478.97;;;18.24;62.69
68301;BME280;55146;47.468;18.806;2022-09-06T06:04:04;100479.97;;;18.28;62.46
68301;BME280;55146;47.468;18.806;2022-09-06T06:06:32;100469.72;;;18.37;62.39
68301;BME280;55146;47.468;18.806;2022-09-06T06:08:58;100482.91;;;18.45;62.19
68301;BME280;55146;47.468;18.806;2022-09-06T06:11:24;100478.50;;;18.52;61.63
68301;BME280;55146;47.468;18.806;2022-09-06T06:13:51;100480.41;;;18.57;60.45
68301;BME280;55146;47.468;18.806;2022-09-06T06:16:17;100487.81;;;18.48;61.86
68301;BME280;55146;47.468;18.806;2022-09-06T06:18:43;100483.59;;;18.50;62.06
68301;BME280;55146;47.468;18.806;2022-09-06T06:21:16;100487.66;;;18.67;61.96
68301;BME280;55146;47.468;18.806;2022-09-06T06:23:43;100490.63;;;18.70;63.12
68301;BME280;55146;47.468;18.806;2022-09-06T06:26:11;100489.09;;;18.95;59.05
68301;BME280;55146;47.468;18.806;2022-09-06T06:28:37;100488.78;;;18.96;60.31
68301;BME280;55146;47.468;18.806;2022-09-06T06:31:03;100485.75;;;19.07;60.94
68301;BME280;55146;47.468;18.806;2022-09-06T06:33:29;100496.97;;;19.32;59.30
68301;BME280;55146;47.468;18.806;2022-09-06T06:35:59;100501.19;;;19.52;58.08
68301;BME280;55146;47.468;18.806;2022-09-06T06:38:32;100506.31;;;19.76;55.61
68301;BME280;55146;47.468;18.806;2022-09-06T06:40:59;100505.56;;;20.10;55.12
68301;BME280;55146;47.468;18.806;2022-09-06T06:43:24;100505.91;;;20.34;55.97
68301;BME280;55146;47.468;18.806;2022-09-06T06:45:50;100511.00;;;20.67;54.22
68301;BME280;55146;47.468;18.806;2022-09-06T06:48:16;100504.34;;;20.88;53.25
68301;BME280;55146;47.468;18.806;2022-09-06T06:50:41;100515.16;;;21.16;51.75
68301;BME280;55146;47.468;18.806;2022-09-06T06:53:07;100516.69;;;21.43;52.52
68301;BME280;55146;47.468;18.806;2022-09-06T06:55:32;100514.72;;;21.72;52.16
68301;BME280;55146;47.468;18.806;2022-09-06T06:58:00;100514.94;;;21.97;50.38
68301;BME280;55146;47.468;18.806;2022-09-06T07:00:26;100522.44;;;22.26;51.23
68301;BME280;55146;47.468;18.806;2022-09-06T07:02:51;100527.41;;;22.62;50.86
68301;BME280;55146;47.468;18.806;2022-09-06T07:05:17;100527.97;;;22.76;49.96
68301;BME280;55146;47.468;18.806;2022-09-06T07:07:43;100532.31;;;22.85;49.83
68301;BME280;55146;47.468;18.806;2022-09-06T07:10:08;100527.22;;;23.12;51.43
68301;BME280;55146;47.468;18.806;2022-09-06T07:12:33;100523.34;;;23.49;51.61
68301;BME280;55146;47.468;18.806;2022-09-06T07:14:59;100518.28;;;23.55;46.55
68301;BME280;55146;47.468;18.806;2022-09-06T07:17:24;100534.56;;;23.73;46.78
68301;BME280;55146;47.468;18.806;2022-09-06T07:19:49;100530.09;;;23.85;45.70
68301;BME280;55146;47.468;18.806;2022-09-06T07:22:15;100526.38;;;23.56;45.35
68301;BME280;55146;47.468;18.806;2022-09-06T07:24:40;100531.69;;;24.10;48.69
68301;BME280;55146;47.468;18.806;2022-09-06T07:27:05;100523.09;;;24.43;45.67
68301;BME280;55146;47.468;18.806;2022-09-06T07:29:31;100525.59;;;24.60;46.53
68301;BME280;55146;47.468;18.806;2022-09-06T07:31:56;100519.25;;;24.91;44.78
68301;BME280;55146;47.468;18.806;2022-09-06T07:34:22;100520.22;;;25.26;46.02
68301;BME280;55146;47.468;18.806;2022-09-06T07:36:53;100525.97;;;25.61;45.09
68301;BME280;55146;47.468;18.806;2022-09-06T07:39:19;100514.38;;;25.82;41.20
68301;BME280;55146;47.468;18.806;2022-09-06T07:41:44;100523.41;;;25.72;41.25
68301;BME280;55146;47.468;18.806;2022-09-06T07:44:10;100522.00;;;25.50;43.80
68301;BME280;55146;47.468;18.806;2022-09-06T07:46:35;100522.13;;;25.54;42.37
68301;BME280;55146;47.468;18.806;2022-09-06T07:49:03;100531.00;;;25.24;45.18
68301;BME280;55146;47.468;18.806;2022-09-06T07:51:28;100527.09;;;25.13;46.13
68301;BME280;55146;47.468;18.806;2022-09-06T07:53:54;100525.44;;;24.96;44.49
68301;BME280;55146;47.468;18.806;2022-09-06T07:56:21;100529.56;;;24.99;47.22
68301;BME280;55146;47.468;18.806;2022-09-06T07:58:47;100530.38;;;25.15;48.42
68301;BME280;55146;47.468;18.806;2022-09-06T08:01:29;100526.69;;;25.58;45.73
68301;BME280;55146;47.468;18.806;2022-09-06T08:03:56;100526.19;;;25.09;44.12
68301;BME280;55146;47.468;18.806;2022-09-06T08:06:23;100525.91;;;24.71;47.22
68301;BME280;55146;47.468;18.806;2022-09-06T08:08:49;100528.94;;;25.21;42.87
68301;BME280;55146;47.468;18.806;2022-09-06T08:11:14;100536.63;;;25.24;46.71
68301;BME280;55146;47.468;18.806;2022-09-06T08:13:39;100523.94;;;25.62;47.13
68301;BME280;55146;47.468;18.806;2022-09-06T08:16:07;100521.31;;;25.69;45.84
68301;BME280;55146;47.468;18.806;2022-09-06T08:18:34;100519.78;;;25.71;42.48
68301;BME280;55146;47.468;18.806;2022-09-06T08:21:10;100512.31;;;25.79;45.29
68301;BME280;55146;47.468;18.806;2022-09-06T08:23:37;100518.00;;;25.83;44.23
68301;BME280;55146;47.468;18.806;2022-09-06T08:26:03;100519.75;;;25.40;46.24
68301;BME280;55146;47.468;18.806;2022-09-06T08:28:29;100510.22;;;25.29;46.64
68301;BME280;55146;47.468;18.806;2022-09-06T08:30:54;100508.50;;;25.40;44.33
68301;BME280;55146;47.468;18.806;2022-09-06T08:33:20;100514.50;;;25.54;43.32
68301;BME280;55146;47.468;18.806;2022-09-06T08:35:58;100514.13;;;25.71;42.95
68301;BME280;55146;47.468;18.806;2022-09-06T08:38:25;100512.88;;;26.23;41.89
68301;BME280;55146;47.468;18.806;2022-09-06T08:40:53;100506.25;;;26.31;41.35
68301;BME280;55146;47.468;18.806;2022-09-06T08:43:20;100510.34;;;26.18;42.15
68301;BME280;55146;47.468;18.806;2022-09-06T08:45:55;100508.41;;;26.57;41.89
68301;BME280;55146;47.468;18.806;2022-09-06T08:48:22;100509.53;;;26.91;44.28
68301;BME280;55146;47.468;18.806;2022-09-06T08:51:02;100510.84;;;26.97;41.46
68301;BME280;55146;47.468;18.806;2022-09-06T08:53:38;100499.66;;;27.04;39.30
68301;BME280;55146;47.468;18.806;2022-09-06T08:56:20;100489.38;;;26.92;41.24
68301;BME280;55146;47.468;18.806;2022-09-06T08:59:05;100499.88;;;27.37;44.56
68301;BME280;55146;47.468;18.806;2022-09-06T09:04:15;100490.81;;;27.77;38.93
68301;BME280;55146;47.468;18.806;2022-09-06T09:06:47;100496.53;;;28.07;41.83
68301;BME280;55146;47.468;18.806;2022-09-06T09:09:15;100490.81;;;28.30;40.16
68301;BME280;55146;47.468;18.806;2022-09-06T09:11:42;100479.62;;;28.41;41.45
68301;BME280;55146;47.468;18.806;2022-09-06T09:14:24;100483.00;;;28.53;39.17
68301;BME280;55146;47.468;18.806;2022-09-06T09:16:53;100473.66;;;28.49;37.40
68301;BME280;55146;47.468;18.806;2022-09-06T09:19:19;100472.97;;;28.60;40.60
68301;BME280;55146;47.468;18.806;2022-09-06T09:21:45;100470.06;;;28.86;40.61
68301;BME280;55146;47.468;18.806;2022-09-06T09:24:12;100474.13;;;28.88;37.66
68301;BME280;55146;47.468;18.806;2022-09-06T09:27:03;100464.50;;;28.96;36.41
68301;BME280;55146;47.468;18.806;2022-09-06T09:29:29;100468.13;;;28.93;36.95
68301;BME280;55146;47.468;18.806;2022-09-06T09:31:55;100465.06;;;29.13;39.58
68301;BME280;55146;47.468;18.806;2022-09-06T09:39:37;100451.69;;;29.13;39.80
68301;BME280;55146;47.468;18.806;2022-09-06T09:42:03;100444.69;;;29.44;37.75
68301;BME280;55146;47.468;18.806;2022-09-06T09:44:29;100446.31;;;29.42;36.52
68301;BME280;55146;47.468;18.806;2022-09-06T09:46:54;100444.69;;;29.44;40.13
68301;BME280;55146;47.468;18.806;2022-09-06T09:52:12;100440.00;;;29.18;37.57
68301;BME280;55146;47.468;18.806;2022-09-06T09:54:41;100427.09;;;29.24;39.78
68301;BME280;55146;47.468;18.806;2022-09-06T09:57:13;100431.38;;;29.52;38.93
68301;BME280;55146;47.468;18.806;2022-09-06T10:02:24;100424.72;;;29.30;35.93
68301;BME280;55146;47.468;18.806;2022-09-06T10:05:14;100416.81;;;29.53;34.88
68301;BME280;55146;47.468;18.806;2022-09-06T10:07:50;100418.03;;;29.05;35.62
68301;BME280;55146;47.468;18.806;2022-09-06T10:10:22;100408.03;;;29.21;35.41
68301;BME280;55146;47.468;18.806;2022-09-06T10:15:45;100406.00;;;29.73;36.50
68301;BME280;55146;47.468;18.806;2022-09-06T10:20:58;100404.56;;;30.07;37.57
68301;BME280;55146;47.468;18.806;2022-09-06T10:23:46;100390.91;;;29.58;35.50
68301;BME280;55146;47.468;18.806;2022-09-06T10:26:17;100390.19;;;29.75;36.90
68301;BME280;55146;47.468;18.806;2022-09-06T10:28:49;100395.66;;;30.09;37.52
68301;BME280;55146;47.468;18.806;2022-09-06T10:31:42;100390.84;;;30.31;35.53
68301;BME280;55146;47.468;18.806;2022-09-06T10:39:47;100382.72;;;30.11;35.72
68301;BME280;55146;47.468;18.806;2022-09-06T10:42:32;100376.09;;;29.86;34.40
68301;BME280;55146;47.468;18.806;2022-09-06T10:59:20;100381.62;;;30.59;36.11
68301;BME280;55146;47.468;18.806;2022-09-06T11:02:09;100385.19;;;30.24;35.82
68301;BME280;55146;47.468;18.806;2022-09-06T11:04:41;100384.88;;;30.53;34.89
68301;BME280;55146;47.468;18.806;2022-09-06T11:09:55;100386.13;;;30.67;35.39
68301;BME280;55146;47.468;18.806;2022-09-06T11:15:34;100375.06;;;30.37;36.94
68301;BME280;55146;47.468;18.806;2022-09-06T11:18:10;100374.59;;;30.13;35.27
68301;BME280;55146;47.468;18.806;2022-09-06T11:21:06;100366.59;;;30.51;34.84
68301;BME280;55146;47.468;18.806;2022-09-06T11:24:14;100368.50;;;30.19;34.67
68301;BME280;55146;47.468;18.806;2022-09-06T11:26:43;100363.66;;;30.15;36.12
68301;BME280;55146;47.468;18.806;2022-09-06T11:29:21;100358.84;;;30.37;34.66
68301;BME280;55146;47.468;18.806;2022-09-06T11:31:55;100356.88;;;30.48;35.27
68301;BME280;55146;47.468;18.806;2022-09-06T11:34:34;100351.19;;;30.48;35.40
68301;BME280;55146;47.468;18.806;2022-09-06T11:37:04;100347.00;;;30.07;35.37
68301;BME280;55146;47.468;18.806;2022-09-06T11:39:37;100345.00;;;30.25;36.16
68301;BME280;55146;47.468;18.806;2022-09-06T11:42:07;100335.34;;;30.47;35.68
68301;BME280;55146;47.468;18.806;2022-09-06T11:44:52;100339.44;;;30.53;37.09
68301;BME280;55146;47.468;18.806;2022-09-06T11:47:45;100338.25;;;30.79;35.16
68301;BME280;55146;47.468;18.806;2022-09-06T11:55:45;100329.16;;;30.13;35.27
68301;BME280;55146;47.468;18.806;2022-09-06T12:06:30;100308.63;;;29.51;36.98
68301;BME280;55146;47.468;18.806;2022-09-06T12:08:57;100311.94;;;29.64;36.52
68301;BME280;55146;47.468;18.806;2022-09-06T12:14:06;100312.06;;;28.69;37.88
68301;BME280;55146;47.468;18.806;2022-09-06T12:19:58;100293.63;;;28.89;37.28
68301;BME280;55146;47.468;18.806;2022-09-06T12:25:18;100285.47;;;29.39;36.24
68301;BME280;55146;47.468;18.806;2022-09-06T12:27:58;100284.37;;;29.61;35.94
68301;BME280;55146;47.468;18.806;2022-09-06T12:32:57;100279.44;;;29.51;36.10
68301;BME280;55146;47.468;18.806;2022-09-06T12:35:26;100268.22;;;29.68;36.78
68301;BME280;55146;47.468;18.806;2022-09-06T12:38:00;100275.03;;;29.57;36.42
68301;BME280;55146;47.468;18.806;2022-09-06T12:40:28;100261.31;;;29.69;35.88
68301;BME280;55146;47.468;18.806;2022-09-06T12:42:54;100257.69;;;29.83;36.33
68301;BME280;55146;47.468;18.806;2022-09-06T12:45:21;100260.19;;;29.92;35.87
68301;BME280;55146;47.468;18.806;2022-09-06T12:47:48;100263.34;;;29.72;34.50
68301;BME280;55146;47.468;18.806;2022-09-06T12:58:07;100235.28;;;28.77;37.25
68301;BME280;55146;47.468;18.806;2022-09-06T13:05:54;100217.34;;;29.24;37.03
68301;BME280;55146;47.468;18.806;2022-09-06T13:08:29;100223.13;;;29.42;36.28
68301;BME280;55146;47.468;18.806;2022-09-06T13:10:57;100222.28;;;29.34;37.11
68301;BME280;55146;47.468;18.806;2022-09-06T13:13:24;100222.72;;;29.40;36.09
68301;BME280;55146;47.468;18.806;2022-09-06T13:15:50;100215.59;;;29.02;37.57
68301;BME280;55146;47.468;18.806;2022-09-06T13:18:23;100221.97;;;28.85;36.33
68301;BME280;55146;47.468;18.806;2022-09-06T13:23:23;100213.22;;;28.49;39.25
68301;BME280;55146;47.468;18.806;2022-09-06T13:25:53;100198.12;;;28.35;38.86
68301;BME280;55146;47.468;18.806;2022-09-06T13:28:27;100195.72;;;28.40;38.62
68301;BME280;55146;47.468;18.806;2022-09-06T13:33:35;100192.06;;;28.33;39.33
68301;BME280;55146;47.468;18.806;2022-09-06T13:36:17;100186.41;;;28.36;40.08
68301;BME280;55146;47.468;18.806;2022-09-06T13:38:44;100180.00;;;28.43;38.82
68301;BME280;55146;47.468;18.806;2022-09-06T13:46:27;100180.50;;;28.55;39.05
68301;BME280;55146;47.468;18.806;2022-09-06T13:48:53;100177.19;;;28.46;39.31
68301;BME280;55146;47.468;18.806;2022-09-06T13:51:19;100167.66;;;28.14;39.87
68301;BME280;55146;47.468;18.806;2022-09-06T13:53:44;100162.69;;;28.07;39.12
68301;BME280;55146;47.468;18.806;2022-09-06T13:56:10;100167.50;;;28.03;39.78
68301;BME280;55146;47.468;18.806;2022-09-06T13:58:36;100169.41;;;27.92;40.02
68301;BME280;55146;47.468;18.806;2022-09-06T14:01:03;100164.59;;;27.96;39.66
68301;BME280;55146;47.468;18.806;2022-09-06T14:03:30;100166.44;;;27.78;40.47
68301;BME280;55146;47.468;18.806;2022-09-06T14:05:57;100167.25;;;27.78;40.63
68301;BME280;55146;47.468;18.806;2022-09-06T14:08:24;100164.31;;;27.64;41.06
68301;BME280;55146;47.468;18.806;2022-09-06T14:10:50;100155.28;;;27.52;40.26
68301;BME280;55146;47.468;18.806;2022-09-06T14:13:16;100155.16;;;27.45;40.75
68301;BME280;55146;47.468;18.806;2022-09-06T14:15:44;100144.94;;;27.33;40.95
68301;BME280;55146;47.468;18.806;2022-09-06T14:18:10;100156.28;;;27.36;40.55
68301;BME280;55146;47.468;18.806;2022-09-06T14:20:35;100148.53;;;27.30;41.16
68301;BME280;55146;47.468;18.806;2022-09-06T14:23:00;100150.03;;;27.20;41.96
68301;BME280;55146;47.468;18.806;2022-09-06T14:25:26;100149.97;;;27.17;41.81
68301;BME280;55146;47.468;18.806;2022-09-06T14:27:52;100147.41;;;27.05;42.16
68301;BME280;55146;47.468;18.806;2022-09-06T14:30:17;100145.09;;;26.84;42.94
68301;BME280;55146;47.468;18.806;2022-09-06T14:32:42;100145.09;;;26.84;43.28
68301;BME280;55146;47.468;18.806;2022-09-06T14:35:08;100147.84;;;26.77;44.04
68301;BME280;55146;47.468;18.806;2022-09-06T14:37:33;100145.06;;;26.54;44.31
68301;BME280;55146;47.468;18.806;2022-09-06T14:39:59;100139.00;;;26.52;45.33
68301;BME280;55146;47.468;18.806;2022-09-06T14:42:24;100153.03;;;26.48;46.08
68301;BME280;55146;47.468;18.806;2022-09-06T14:44:50;100170.19;;;26.36;48.62
68301;BME280;55146;47.468;18.806;2022-09-06T14:47:16;100173.97;;;25.98;49.08